sensor_id;sensor_type;location;lat;lon;timestamp;temperature;humidity
11304;DHT22;5707;49.588;12.148;2022-08-21T00:00:41;15.40;99.90
11304;DHT22;5707;49.588;12.148;2022-08-21T00:03:20;15.40;99.90
11304;DHT22;5707;49.588;12.148;2022-08-21T00:06:00;15.50;99.90
11304;DHT22;5707;49.588;12.148;2022-08-21T00:08:40;15.50;99.90
11304;DHT22;5707;49.588;12.148;2022-08-21T00:11:21;15.60;99.90
11304;DHT22;5707;49.588;12.148;2022-08-21T00:14:02;15.70;99.90
11304;DHT22;5707;49.588;12.148;2022-08-21T00:16:43;15.80;99.90
11304;DHT22;5707;49.588;12.148;2022-08-21T00:19:22;15.80;99.90
11304;DHT22;5707;49.588;12.148;2022-08-21T00:22:16;15.90;99.90
11304;DHT22;5707;49.588;12.148;2022-08-21T00:24:55;16.00;99.90
11304;DHT22;5707;49.588;12.148;2022-08-21T00:27:35;16.20;99.90
11304;DHT22;5707;49.588;12.148;2022-08-21T00:30:16;16.30;99.90
11304;DHT22;5707;49.588;12.148;2022-08-21T00:32:57;16.30;99.90
11304;DHT22;5707;49.588;12.148;2022-08-21T00:35:37;16.30;99.90
11304;DHT22;5707;49.588;12.148;2022-08-21T00:38:18;16.30;99.90
11304;DHT22;5707;49.588;12.148;2022-08-21T00:40:59;16.30;99.90
11304;DHT22;5707;49.588;12.148;2022-08-21T00:43:39;16.30;99.90
11304;DHT22;5707;49.588;12.148;2022-08-21T00:46:19;16.30;99.90
11304;DHT22;5707;49.588;12.148;2022-08-21T00:48:59;16.30;99.90
11304;DHT22;5707;49.588;12.148;2022-08-21T00:51:39;16.40;99.90
11304;DHT22;5707;49.588;12.148;2022-08-21T00:54:22;16.40;99.90
11304;DHT22;5707;49.588;12.148;2022-08-21T00:57:04;16.40;99.90
11304;DHT22;5707;49.588;12.148;2022-08-21T00:59:47;16.40;99.90
11304;DHT22;5707;49.588;12.148;2022-08-21T01:02:29;16.40;99.90
11304;DHT22;5707;49.588;12.148;2022-08-21T01:05:09;16.40;99.90
11304;DHT22;5707;49.588;12.148;2022-08-21T01:07:49;16.40;99.90
11304;DHT22;5707;49.588;12.148;2022-08-21T01:10:29;16.40;99.90
11304;DHT22;5707;49.588;12.148;2022-08-21T01:13:10;16.50;99.90
11304;DHT22;5707;49.588;12.148;2022-08-21T01:15:52;16.50;99.90
11304;DHT22;5707;49.588;12.148;2022-08-21T01:18:33;16.50;99.90
11304;DHT22;5707;49.588;12.148;2022-08-21T01:21:13;16.50;99.90
11304;DHT22;5707;49.588;12.148;2022-08-21T01:24:06;16.40;99.90
11304;DHT22;5707;49.588;12.148;2022-08-21T01:26:46;16.50;99.90
11304;DHT22;5707;49.588;12.148;2022-08-21T01:29:28;16.50;99.90
11304;DHT22;5707;49.588;12.148;2022-08-21T01:32:12;16.50;99.90
11304;DHT22;5707;49.588;12.148;2022-08-21T01:34:52;16.50;99.90
11304;DHT22;5707;49.588;12.148;2022-08-21T01:37:33;16.50;99.90
11304;DHT22;5707;49.588;12.148;2022-08-21T01:40:15;16.50;99.90
11304;DHT22;5707;49.588;12.148;2022-08-21T01:42:56;16.50;99.90
11304;DHT22;5707;49.588;12.148;2022-08-21T01:45:36;16.50;99.90
11304;DHT22;5707;49.588;12.148;2022-08-21T01:48:16;16.50;99.90
11304;DHT22;5707;49.588;12.148;2022-08-21T01:50:55;16.50;99.90
11304;DHT22;5707;49.588;12.148;2022-08-21T01:53:35;16.60;99.90
11304;DHT22;5707;49.588;12.148;2022-08-21T01:56:15;16.60;99.90
11304;DHT22;5707;49.588;12.148;2022-08-21T01:58:56;16.60;99.90
11304;DHT22;5707;49.588;12.148;2022-08-21T02:01:36;16.60;99.90
11304;DHT22;5707;49.588;12.148;2022-08-21T02:04:18;16.50;99.90
11304;DHT22;5707;49.588;12.148;2022-08-21T02:06:58;16.50;99.90
11304;DHT22;5707;49.588;12.148;2022-08-21T02:09:39;16.40;99.90
11304;DHT22;5707;49.588;12.148;2022-08-21T02:12:20;16.40;99.90
11304;DHT22;5707;49.588;12.148;2022-08-21T02:15:00;16.40;99.90
11304;DHT22;5707;49.588;12.148;2022-08-21T02:17:41;16.50;99.90
11304;DHT22;5707;49.588;12.148;2022-08-21T02:20:23;16.40;99.90
11304;DHT22;5707;49.588;12.148;2022-08-21T02:23:04;16.40;99.90
11304;DHT22;5707;49.588;12.148;2022-08-21T02:25:44;16.40;99.90
11304;DHT22;5707;49.588;12.148;2022-08-21T02:28:26;16.40;99.90
11304;DHT22;5707;49.588;12.148;2022-08-21T02:31:06;16.50;99.90
11304;DHT22;5707;49.588;12.148;2022-08-21T02:33:47;16.50;99.90
11304;DHT22;5707;49.588;12.148;2022-08-21T02:36:27;16.50;99.90
11304;DHT22;5707;49.588;12.148;2022-08-21T02:39:07;16.50;99.90
11304;DHT22;5707;49.588;12.148;2022-08-21T02:41:47;16.60;99.90
11304;DHT22;5707;49.588;12.148;2022-08-21T02:44:26;16.50;99.90
11304;DHT22;5707;49.588;12.148;2022-08-21T02:47:06;16.50;99.90
11304;DHT22;5707;49.588;12.148;2022-08-21T02:49:46;16.50;99.90
11304;DHT22;5707;49.588;12.148;2022-08-21T02:52:26;16.60;99.90
11304;DHT22;5707;49.588;12.148;2022-08-21T02:55:06;16.50;99.90
11304;DHT22;5707;49.588;12.148;2022-08-21T02:57:46;16.50;99.90
11304;DHT22;5707;49.588;12.148;2022-08-21T03:00:26;16.50;99.90
11304;DHT22;5707;49.588;12.148;2022-08-21T03:03:07;16.60;99.90
11304;DHT22;5707;49.588;12.148;2022-08-21T03:05:47;16.50;99.90
11304;DHT22;5707;49.588;12.148;2022-08-21T03:08:26;16.60;99.90
11304;DHT22;5707;49.588;12.148;2022-08-21T03:11:06;16.60;99.90
11304;DHT22;5707;49.588;12.148;2022-08-21T03:13:46;16.60;99.90
11304;DHT22;5707;49.588;12.148;2022-08-21T03:16:26;16.60;99.90
11304;DHT22;5707;49.588;12.148;2022-08-21T03:19:06;16.60;99.90
11304;DHT22;5707;49.588;12.148;2022-08-21T03:21:46;16.50;99.90
11304;DHT22;5707;49.588;12.148;2022-08-21T03:24:25;16.50;99.90
11304;DHT22;5707;49.588;12.148;2022-08-21T03:27:05;16.50;99.90
11304;DHT22;5707;49.588;12.148;2022-08-21T03:29:45;16.50;99.90
11304;DHT22;5707;49.588;12.148;2022-08-21T03:32:25;16.60;99.90
11304;DHT22;5707;49.588;12.148;2022-08-21T03:35:05;16.60;99.90
11304;DHT22;5707;49.588;12.148;2022-08-21T03:37:45;16.60;99.90
11304;DHT22;5707;49.588;12.148;2022-08-21T03:40:26;16.60;99.90
11304;DHT22;5707;49.588;12.148;2022-08-21T03:43:06;16.60;99.90
11304;DHT22;5707;49.588;12.148;2022-08-21T03:45:47;16.60;99.90
11304;DHT22;5707;49.588;12.148;2022-08-21T03:48:27;16.60;99.90
11304;DHT22;5707;49.588;12.148;2022-08-21T03:51:07;16.60;99.90
11304;DHT22;5707;49.588;12.148;2022-08-21T03:53:47;16.60;99.90
11304;DHT22;5707;49.588;12.148;2022-08-21T03:56:27;16.60;99.90
11304;DHT22;5707;49.588;12.148;2022-08-21T03:59:06;16.60;99.90
11304;DHT22;5707;49.588;12.148;2022-08-21T04:01:52;16.60;99.90
11304;DHT22;5707;49.588;12.148;2022-08-21T04:04:33;16.60;99.90
11304;DHT22;5707;49.588;12.148;2022-08-21T04:07:14;16.60;99.90
11304;DHT22;5707;49.588;12.148;2022-08-21T04:09:54;16.60;99.90
11304;DHT22;5707;49.588;12.148;2022-08-21T04:12:33;16.70;99.90
11304;DHT22;5707;49.588;12.148;2022-08-21T04:15:13;16.70;99.90
11304;DHT22;5707;49.588;12.148;2022-08-21T04:17:53;16.70;99.90
11304;DHT22;5707;49.588;12.148;2022-08-21T04:20:33;16.70;99.90
11304;DHT22;5707;49.588;12.148;2022-08-21T04:23:13;16.70;99.90
11304;DHT22;5707;49.588;12.148;2022-08-21T04:25:53;16.70;99.90
11304;DHT22;5707;49.588;12.148;2022-08-21T04:28:34;16.70;99.90
11304;DHT22;5707;49.588;12.148;2022-08-21T04:31:14;16.80;99.90
11304;DHT22;5707;49.588;12.148;2022-08-21T04:33:54;16.80;99.90
11304;DHT22;5707;49.588;12.148;2022-08-21T04:36:35;16.80;99.90
11304;DHT22;5707;49.588;12.148;2022-08-21T04:39:15;16.80;99.90
11304;DHT22;5707;49.588;12.148;2022-08-21T04:41:55;16.80;99.90
11304;DHT22;5707;49.588;12.148;2022-08-21T04:44:35;16.80;99.90
11304;DHT22;5707;49.588;12.148;2022-08-21T04:47:14;16.90;99.90
11304;DHT22;5707;49.588;12.148;2022-08-21T04:49:54;16.90;99.90
11304;DHT22;5707;49.588;12.148;2022-08-21T04:52:34;16.90;99.90
11304;DHT22;5707;49.588;12.148;2022-08-21T04:55:14;16.90;99.90
11304;DHT22;5707;49.588;12.148;2022-08-21T04:57:55;17.00;99.90
11304;DHT22;5707;49.588;12.148;2022-08-21T05:00:37;17.00;99.90
11304;DHT22;5707;49.588;12.148;2022-08-21T05:03:17;17.00;99.90
11304;DHT22;5707;49.588;12.148;2022-08-21T05:05:57;17.10;99.90
11304;DHT22;5707;49.588;12.148;2022-08-21T05:08:37;17.10;99.90
11304;DHT22;5707;49.588;12.148;2022-08-21T05:11:18;17.20;99.90
11304;DHT22;5707;49.588;12.148;2022-08-21T05:13:59;17.20;99.90
11304;DHT22;5707;49.588;12.148;2022-08-21T05:16:39;17.20;99.90
11304;DHT22;5707;49.588;12.148;2022-08-21T05:19:20;17.20;99.90
11304;DHT22;5707;49.588;12.148;2022-08-21T05:22:02;17.30;99.90
11304;DHT22;5707;49.588;12.148;2022-08-21T05:24:42;17.30;99.90
11304;DHT22;5707;49.588;12.148;2022-08-21T05:27:21;17.30;99.90
11304;DHT22;5707;49.588;12.148;2022-08-21T05:30:02;17.40;99.90
11304;DHT22;5707;49.588;12.148;2022-08-21T05:32:43;17.40;99.90
11304;DHT22;5707;49.588;12.148;2022-08-21T05:35:23;17.50;99.90
11304;DHT22;5707;49.588;12.148;2022-08-21T05:38:05;17.50;99.90
11304;DHT22;5707;49.588;12.148;2022-08-21T05:40:46;17.50;99.90
11304;DHT22;5707;49.588;12.148;2022-08-21T05:43:27;17.50;99.90
11304;DHT22;5707;49.588;12.148;2022-08-21T05:46:07;17.50;99.90
11304;DHT22;5707;49.588;12.148;2022-08-21T05:48:48;17.50;99.90
11304;DHT22;5707;49.588;12.148;2022-08-21T05:51:28;17.50;99.90
11304;DHT22;5707;49.588;12.148;2022-08-21T05:54:08;17.60;99.90
11304;DHT22;5707;49.588;12.148;2022-08-21T05:56:48;17.60;99.90
11304;DHT22;5707;49.588;12.148;2022-08-21T05:59:27;17.60;99.90
11304;DHT22;5707;49.588;12.148;2022-08-21T06:02:07;17.70;99.90
11304;DHT22;5707;49.588;12.148;2022-08-21T06:04:47;17.80;99.90
11304;DHT22;5707;49.588;12.148;2022-08-21T06:07:28;17.80;99.90
11304;DHT22;5707;49.588;12.148;2022-08-21T06:10:09;17.80;99.90
11304;DHT22;5707;49.588;12.148;2022-08-21T06:12:48;17.80;99.90
11304;DHT22;5707;49.588;12.148;2022-08-21T06:15:31;17.80;99.90
11304;DHT22;5707;49.588;12.148;2022-08-21T06:18:11;17.80;99.90
11304;DHT22;5707;49.588;12.148;2022-08-21T06:20:51;17.70;99.90
11304;DHT22;5707;49.588;12.148;2022-08-21T06:23:31;17.70;99.90
11304;DHT22;5707;49.588;12.148;2022-08-21T06:26:11;17.70;99.90
11304;DHT22;5707;49.588;12.148;2022-08-21T06:28:52;17.70;99.90
11304;DHT22;5707;49.588;12.148;2022-08-21T06:31:32;17.80;99.90
11304;DHT22;5707;49.588;12.148;2022-08-21T06:34:12;17.90;99.90
11304;DHT22;5707;49.588;12.148;2022-08-21T06:36:51;17.90;99.90
11304;DHT22;5707;49.588;12.148;2022-08-21T06:39:32;18.00;99.90
11304;DHT22;5707;49.588;12.148;2022-08-21T06:42:14;18.00;99.90
11304;DHT22;5707;49.588;12.148;2022-08-21T06:44:54;18.00;99.90
11304;DHT22;5707;49.588;12.148;2022-08-21T06:47:34;18.10;99.90
11304;DHT22;5707;49.588;12.148;2022-08-21T06:50:14;18.20;99.90
11304;DHT22;5707;49.588;12.148;2022-08-21T06:52:59;18.30;99.90
11304;DHT22;5707;49.588;12.148;2022-08-21T06:55:40;18.50;99.90
11304;DHT22;5707;49.588;12.148;2022-08-21T06:58:21;18.70;99.90
11304;DHT22;5707;49.588;12.148;2022-08-21T07:01:01;18.80;99.90
11304;DHT22;5707;49.588;12.148;2022-08-21T07:03:41;18.90;99.90
11304;DHT22;5707;49.588;12.148;2022-08-21T07:06:22;19.00;99.90
11304;DHT22;5707;49.588;12.148;2022-08-21T07:09:04;19.20;99.90
11304;DHT22;5707;49.588;12.148;2022-08-21T07:11:44;19.40;99.90
11304;DHT22;5707;49.588;12.148;2022-08-21T07:14:25;19.60;99.90
11304;DHT22;5707;49.588;12.148;2022-08-21T07:17:05;19.80;99.90
11304;DHT22;5707;49.588;12.148;2022-08-21T07:19:45;20.00;99.90
11304;DHT22;5707;49.588;12.148;2022-08-21T07:22:24;20.00;99.90
11304;DHT22;5707;49.588;12.148;2022-08-21T07:25:06;20.10;99.90
11304;DHT22;5707;49.588;12.148;2022-08-21T07:27:47;20.20;99.90
11304;DHT22;5707;49.588;12.148;2022-08-21T07:30:27;20.40;99.90
11304;DHT22;5707;49.588;12.148;2022-08-21T07:33:09;20.90;99.90
11304;DHT22;5707;49.588;12.148;2022-08-21T07:35:48;21.20;99.90
11304;DHT22;5707;49.588;12.148;2022-08-21T07:38:28;21.30;99.90
11304;DHT22;5707;49.588;12.148;2022-08-21T07:41:10;21.20;99.90
11304;DHT22;5707;49.588;12.148;2022-08-21T07:43:53;21.20;99.90
11304;DHT22;5707;49.588;12.148;2022-08-21T07:46:33;21.20;99.90
11304;DHT22;5707;49.588;12.148;2022-08-21T07:49:12;21.40;99.90
11304;DHT22;5707;49.588;12.148;2022-08-21T07:51:52;21.60;99.90
11304;DHT22;5707;49.588;12.148;2022-08-21T07:54:34;21.60;99.90
11304;DHT22;5707;49.588;12.148;2022-08-21T07:57:13;21.70;99.90
11304;DHT22;5707;49.588;12.148;2022-08-21T07:59:55;21.70;99.90
11304;DHT22;5707;49.588;12.148;2022-08-21T08:02:35;21.70;99.90
11304;DHT22;5707;49.588;12.148;2022-08-21T08:05:15;21.80;99.90
11304;DHT22;5707;49.588;12.148;2022-08-21T08:07:56;22.00;99.90
11304;DHT22;5707;49.588;12.148;2022-08-21T08:10:38;22.30;99.90
11304;DHT22;5707;49.588;12.148;2022-08-21T08:13:19;22.30;99.90
11304;DHT22;5707;49.588;12.148;2022-08-21T08:15:59;22.40;99.90
11304;DHT22;5707;49.588;12.148;2022-08-21T08:18:39;22.80;99.90
11304;DHT22;5707;49.588;12.148;2022-08-21T08:21:20;23.30;99.90
11304;DHT22;5707;49.588;12.148;2022-08-21T08:24:00;23.40;99.90
11304;DHT22;5707;49.588;12.148;2022-08-21T08:26:40;23.80;99.90
11304;DHT22;5707;49.588;12.148;2022-08-21T08:29:19;24.10;99.90
11304;DHT22;5707;49.588;12.148;2022-08-21T08:32:01;24.20;99.90
11304;DHT22;5707;49.588;12.148;2022-08-21T08:34:42;24.40;99.90
11304;DHT22;5707;49.588;12.148;2022-08-21T08:37:22;24.10;99.90
11304;DHT22;5707;49.588;12.148;2022-08-21T08:40:02;24.00;99.90
11304;DHT22;5707;49.588;12.148;2022-08-21T08:42:43;24.20;99.90
11304;DHT22;5707;49.588;12.148;2022-08-21T08:45:26;24.30;99.90
11304;DHT22;5707;49.588;12.148;2022-08-21T08:48:26;24.20;99.90
11304;DHT22;5707;49.588;12.148;2022-08-21T08:51:14;24.20;99.90
11304;DHT22;5707;49.588;12.148;2022-08-21T08:53:57;24.50;99.90
11304;DHT22;5707;49.588;12.148;2022-08-21T08:56:38;24.60;99.90
11304;DHT22;5707;49.588;12.148;2022-08-21T08:59:18;24.40;99.90
11304;DHT22;5707;49.588;12.148;2022-08-21T09:02:01;24.50;99.90
11304;DHT22;5707;49.588;12.148;2022-08-21T09:04:43;24.60;99.90
11304;DHT22;5707;49.588;12.148;2022-08-21T09:07:28;24.80;99.90
11304;DHT22;5707;49.588;12.148;2022-08-21T09:10:16;25.00;99.90
11304;DHT22;5707;49.588;12.148;2022-08-21T09:12:59;25.30;99.90
11304;DHT22;5707;49.588;12.148;2022-08-21T09:15:46;25.40;99.90
11304;DHT22;5707;49.588;12.148;2022-08-21T09:18:34;25.40;99.90
11304;DHT22;5707;49.588;12.148;2022-08-21T09:21:21;25.30;99.90
11304;DHT22;5707;49.588;12.148;2022-08-21T09:24:08;25.00;99.90
11304;DHT22;5707;49.588;12.148;2022-08-21T09:26:56;24.70;99.90
11304;DHT22;5707;49.588;12.148;2022-08-21T09:29:38;24.90;99.90
11304;DHT22;5707;49.588;12.148;2022-08-21T09:32:19;25.30;99.90
11304;DHT22;5707;49.588;12.148;2022-08-21T09:35:00;25.60;99.90
11304;DHT22;5707;49.588;12.148;2022-08-21T09:37:49;25.60;99.90
11304;DHT22;5707;49.588;12.148;2022-08-21T09:40:32;25.70;99.90
11304;DHT22;5707;49.588;12.148;2022-08-21T09:43:17;25.40;99.90
11304;DHT22;5707;49.588;12.148;2022-08-21T09:46:03;25.30;99.90
11304;DHT22;5707;49.588;12.148;2022-08-21T09:48:46;25.30;99.90
11304;DHT22;5707;49.588;12.148;2022-08-21T09:51:29;24.90;99.90
11304;DHT22;5707;49.588;12.148;2022-08-21T09:54:14;24.90;99.90
11304;DHT22;5707;49.588;12.148;2022-08-21T09:56:55;25.00;99.90
11304;DHT22;5707;49.588;12.148;2022-08-21T09:59:53;25.10;99.90
11304;DHT22;5707;49.588;12.148;2022-08-21T10:02:35;25.60;99.90
11304;DHT22;5707;49.588;12.148;2022-08-21T10:05:18;26.00;99.90
11304;DHT22;5707;49.588;12.148;2022-08-21T10:07:59;26.10;99.90
11304;DHT22;5707;49.588;12.148;2022-08-21T10:10:40;25.90;99.90
11304;DHT22;5707;49.588;12.148;2022-08-21T10:13:21;25.80;99.90
11304;DHT22;5707;49.588;12.148;2022-08-21T10:16:08;25.80;99.90
11304;DHT22;5707;49.588;12.148;2022-08-21T10:18:56;26.00;99.90
11304;DHT22;5707;49.588;12.148;2022-08-21T10:21:40;25.90;99.90
11304;DHT22;5707;49.588;12.148;2022-08-21T10:24:24;25.60;99.90
11304;DHT22;5707;49.588;12.148;2022-08-21T10:27:09;25.10;99.90
11304;DHT22;5707;49.588;12.148;2022-08-21T10:29:56;24.80;99.90
11304;DHT22;5707;49.588;12.148;2022-08-21T10:32:40;24.50;99.90
11304;DHT22;5707;49.588;12.148;2022-08-21T10:35:24;24.50;99.90
11304;DHT22;5707;49.588;12.148;2022-08-21T10:38:18;24.60;99.90
11304;DHT22;5707;49.588;12.148;2022-08-21T10:41:04;24.50;99.90
11304;DHT22;5707;49.588;12.148;2022-08-21T10:43:50;24.50;99.90
11304;DHT22;5707;49.588;12.148;2022-08-21T10:46:36;24.70;99.90
11304;DHT22;5707;49.588;12.148;2022-08-21T10:49:22;24.70;99.90
11304;DHT22;5707;49.588;12.148;2022-08-21T10:52:12;24.80;99.90
11304;DHT22;5707;49.588;12.148;2022-08-21T10:54:57;24.60;99.90
11304;DHT22;5707;49.588;12.148;2022-08-21T10:57:41;24.80;99.90
11304;DHT22;5707;49.588;12.148;2022-08-21T11:00:23;24.90;99.90
11304;DHT22;5707;49.588;12.148;2022-08-21T11:03:09;24.90;99.90
11304;DHT22;5707;49.588;12.148;2022-08-21T11:05:51;25.20;99.90
11304;DHT22;5707;49.588;12.148;2022-08-21T11:08:33;25.40;99.90
11304;DHT22;5707;49.588;12.148;2022-08-21T11:11:15;25.60;99.90
11304;DHT22;5707;49.588;12.148;2022-08-21T11:14:00;25.90;99.90
11304;DHT22;5707;49.588;12.148;2022-08-21T11:16:43;26.10;99.90
11304;DHT22;5707;49.588;12.148;2022-08-21T11:19:28;26.30;99.90
11304;DHT22;5707;49.588;12.148;2022-08-21T11:22:11;26.50;99.90
11304;DHT22;5707;49.588;12.148;2022-08-21T11:24:54;27.20;99.90
11304;DHT22;5707;49.588;12.148;2022-08-21T11:27:38;27.50;99.10
11304;DHT22;5707;49.588;12.148;2022-08-21T11:30:21;27.40;99.80
11304;DHT22;5707;49.588;12.148;2022-08-21T11:33:08;27.90;93.70
11304;DHT22;5707;49.588;12.148;2022-08-21T11:35:53;28.10;92.60
11304;DHT22;5707;49.588;12.148;2022-08-21T11:38:38;28.30;85.60
11304;DHT22;5707;49.588;12.148;2022-08-21T11:41:25;28.30;80.60
11304;DHT22;5707;49.588;12.148;2022-08-21T11:44:09;28.30;79.30
11304;DHT22;5707;49.588;12.148;2022-08-21T11:46:53;28.00;80.10
11304;DHT22;5707;49.588;12.148;2022-08-21T11:49:42;27.80;84.00
11304;DHT22;5707;49.588;12.148;2022-08-21T11:52:27;27.60;83.90
11304;DHT22;5707;49.588;12.148;2022-08-21T11:55:11;27.90;83.90
11304;DHT22;5707;49.588;12.148;2022-08-21T11:57:53;27.70;80.40
11304;DHT22;5707;49.588;12.148;2022-08-21T12:00:36;27.50;82.20
11304;DHT22;5707;49.588;12.148;2022-08-21T12:03:22;27.20;87.30
11304;DHT22;5707;49.588;12.148;2022-08-21T12:06:04;27.00;85.30
11304;DHT22;5707;49.588;12.148;2022-08-21T12:08:46;26.40;88.10
11304;DHT22;5707;49.588;12.148;2022-08-21T12:11:48;26.00;87.30
11304;DHT22;5707;49.588;12.148;2022-08-21T12:14:36;25.60;90.60
11304;DHT22;5707;49.588;12.148;2022-08-21T12:17:18;25.20;93.30
11304;DHT22;5707;49.588;12.148;2022-08-21T12:19:59;25.00;98.00
11304;DHT22;5707;49.588;12.148;2022-08-21T12:22:40;24.80;99.90
11304;DHT22;5707;49.588;12.148;2022-08-21T12:25:21;24.80;99.90
11304;DHT22;5707;49.588;12.148;2022-08-21T12:28:06;24.80;99.90
11304;DHT22;5707;49.588;12.148;2022-08-21T12:30:48;24.70;99.90
11304;DHT22;5707;49.588;12.148;2022-08-21T12:33:30;24.70;99.90
11304;DHT22;5707;49.588;12.148;2022-08-21T12:36:13;24.70;99.90
11304;DHT22;5707;49.588;12.148;2022-08-21T12:38:56;24.40;99.90
11304;DHT22;5707;49.588;12.148;2022-08-21T12:41:38;24.00;99.90
11304;DHT22;5707;49.588;12.148;2022-08-21T12:44:22;23.80;99.90
11304;DHT22;5707;49.588;12.148;2022-08-21T12:47:06;23.50;99.90
11304;DHT22;5707;49.588;12.148;2022-08-21T12:49:53;22.00;99.90
11304;DHT22;5707;49.588;12.148;2022-08-21T12:52:35;21.00;99.90
11304;DHT22;5707;49.588;12.148;2022-08-21T12:55:24;20.40;99.90
11304;DHT22;5707;49.588;12.148;2022-08-21T12:58:06;20.20;99.90
11304;DHT22;5707;49.588;12.148;2022-08-21T13:00:48;20.20;99.90
11304;DHT22;5707;49.588;12.148;2022-08-21T13:03:28;20.20;99.90
11304;DHT22;5707;49.588;12.148;2022-08-21T13:06:13;20.30;99.90
11304;DHT22;5707;49.588;12.148;2022-08-21T13:08:56;20.30;99.90
11304;DHT22;5707;49.588;12.148;2022-08-21T13:11:37;20.30;99.90
11304;DHT22;5707;49.588;12.148;2022-08-21T13:14:21;20.40;99.90
11304;DHT22;5707;49.588;12.148;2022-08-21T13:17:03;20.40;99.90
11304;DHT22;5707;49.588;12.148;2022-08-21T13:19:51;20.30;99.90
11304;DHT22;5707;49.588;12.148;2022-08-21T13:22:31;20.40;99.90
11304;DHT22;5707;49.588;12.148;2022-08-21T13:25:17;20.50;99.90
11304;DHT22;5707;49.588;12.148;2022-08-21T13:27:59;20.40;99.90
11304;DHT22;5707;49.588;12.148;2022-08-21T13:30:40;20.50;99.90
11304;DHT22;5707;49.588;12.148;2022-08-21T13:33:22;20.60;99.90
11304;DHT22;5707;49.588;12.148;2022-08-21T13:36:04;20.50;99.90
11304;DHT22;5707;49.588;12.148;2022-08-21T13:38:45;20.50;99.90
11304;DHT22;5707;49.588;12.148;2022-08-21T13:41:25;20.60;99.90
11304;DHT22;5707;49.588;12.148;2022-08-21T13:44:13;20.90;99.90
11304;DHT22;5707;49.588;12.148;2022-08-21T13:46:54;21.50;99.90
11304;DHT22;5707;49.588;12.148;2022-08-21T13:49:36;21.90;99.90
11304;DHT22;5707;49.588;12.148;2022-08-21T13:52:18;22.20;99.90
11304;DHT22;5707;49.588;12.148;2022-08-21T13:54:59;22.60;99.90
11304;DHT22;5707;49.588;12.148;2022-08-21T13:57:39;23.10;99.90
11304;DHT22;5707;49.588;12.148;2022-08-21T14:00:20;23.50;99.90
11304;DHT22;5707;49.588;12.148;2022-08-21T14:03:05;23.70;99.90
11304;DHT22;5707;49.588;12.148;2022-08-21T14:05:45;24.10;99.90
11304;DHT22;5707;49.588;12.148;2022-08-21T14:08:26;24.50;99.90
11304;DHT22;5707;49.588;12.148;2022-08-21T14:11:09;24.60;99.90
11304;DHT22;5707;49.588;12.148;2022-08-21T14:13:56;24.90;99.90
11304;DHT22;5707;49.588;12.148;2022-08-21T14:16:45;25.30;99.90
11304;DHT22;5707;49.588;12.148;2022-08-21T14:19:26;25.60;99.90
11304;DHT22;5707;49.588;12.148;2022-08-21T14:22:23;25.80;98.30
11304;DHT22;5707;49.588;12.148;2022-08-21T14:25:04;26.00;97.90
11304;DHT22;5707;49.588;12.148;2022-08-21T14:27:44;26.10;97.40
11304;DHT22;5707;49.588;12.148;2022-08-21T14:30:31;26.00;93.00
11304;DHT22;5707;49.588;12.148;2022-08-21T14:33:13;25.90;96.10
11304;DHT22;5707;49.588;12.148;2022-08-21T14:35:55;25.90;94.80
11304;DHT22;5707;49.588;12.148;2022-08-21T14:38:35;25.80;97.90
11304;DHT22;5707;49.588;12.148;2022-08-21T14:41:17;25.90;97.50
11304;DHT22;5707;49.588;12.148;2022-08-21T14:43:57;25.90;96.60
11304;DHT22;5707;49.588;12.148;2022-08-21T14:46:37;26.00;95.00
11304;DHT22;5707;49.588;12.148;2022-08-21T14:49:17;26.20;93.20
11304;DHT22;5707;49.588;12.148;2022-08-21T14:51:57;26.60;93.00
11304;DHT22;5707;49.588;12.148;2022-08-21T14:54:38;27.00;87.10
11304;DHT22;5707;49.588;12.148;2022-08-21T14:57:21;27.60;89.70
11304;DHT22;5707;49.588;12.148;2022-08-21T15:00:01;28.20;80.80
11304;DHT22;5707;49.588;12.148;2022-08-21T15:02:43;28.50;79.10
11304;DHT22;5707;49.588;12.148;2022-08-21T15:05:22;28.70;67.40
11304;DHT22;5707;49.588;12.148;2022-08-21T15:08:02;28.70;67.10
11304;DHT22;5707;49.588;12.148;2022-08-21T15:10:42;28.70;65.50
11304;DHT22;5707;49.588;12.148;2022-08-21T15:13:22;28.60;68.80
11304;DHT22;5707;49.588;12.148;2022-08-21T15:16:03;28.50;68.30
11304;DHT22;5707;49.588;12.148;2022-08-21T15:18:43;28.30;71.00
11304;DHT22;5707;49.588;12.148;2022-08-21T15:21:23;27.70;68.80
11304;DHT22;5707;49.588;12.148;2022-08-21T15:24:03;27.30;71.80
11304;DHT22;5707;49.588;12.148;2022-08-21T15:26:43;27.10;68.70
11304;DHT22;5707;49.588;12.148;2022-08-21T15:29:24;27.20;70.90
11304;DHT22;5707;49.588;12.148;2022-08-21T15:32:14;27.40;69.60
11304;DHT22;5707;49.588;12.148;2022-08-21T15:34:55;27.30;64.80
11304;DHT22;5707;49.588;12.148;2022-08-21T15:37:35;27.20;64.70
11304;DHT22;5707;49.588;12.148;2022-08-21T15:40:16;27.00;65.00
11304;DHT22;5707;49.588;12.148;2022-08-21T15:42:57;27.10;63.90
11304;DHT22;5707;49.588;12.148;2022-08-21T15:45:39;27.30;66.80
11304;DHT22;5707;49.588;12.148;2022-08-21T15:48:19;27.90;62.10
11304;DHT22;5707;49.588;12.148;2022-08-21T15:50:58;28.30;58.10
11304;DHT22;5707;49.588;12.148;2022-08-21T15:53:38;28.30;58.40
11304;DHT22;5707;49.588;12.148;2022-08-21T15:56:20;28.30;59.50
11304;DHT22;5707;49.588;12.148;2022-08-21T15:59:03;28.40;60.30
11304;DHT22;5707;49.588;12.148;2022-08-21T16:01:44;29.00;59.40
11304;DHT22;5707;49.588;12.148;2022-08-21T16:04:26;30.00;54.20
11304;DHT22;5707;49.588;12.148;2022-08-21T16:07:07;30.40;51.10
11304;DHT22;5707;49.588;12.148;2022-08-21T16:09:49;29.90;49.70
11304;DHT22;5707;49.588;12.148;2022-08-21T16:12:31;29.20;50.80
11304;DHT22;5707;49.588;12.148;2022-08-21T16:15:12;29.50;50.60
11304;DHT22;5707;49.588;12.148;2022-08-21T16:17:53;29.80;50.80
11304;DHT22;5707;49.588;12.148;2022-08-21T16:20:33;29.70;50.20
11304;DHT22;5707;49.588;12.148;2022-08-21T16:23:12;29.30;50.40
11304;DHT22;5707;49.588;12.148;2022-08-21T16:25:52;28.40;51.70
11304;DHT22;5707;49.588;12.148;2022-08-21T16:28:32;28.10;51.60
11304;DHT22;5707;49.588;12.148;2022-08-21T16:31:14;27.60;52.80
11304;DHT22;5707;49.588;12.148;2022-08-21T16:33:54;27.00;56.10
11304;DHT22;5707;49.588;12.148;2022-08-21T16:36:35;26.40;58.00
11304;DHT22;5707;49.588;12.148;2022-08-21T16:39:15;26.00;60.90
11304;DHT22;5707;49.588;12.148;2022-08-21T16:41:54;25.50;58.10
11304;DHT22;5707;49.588;12.148;2022-08-21T16:44:34;25.20;59.60
11304;DHT22;5707;49.588;12.148;2022-08-21T16:47:14;25.10;60.60
11304;DHT22;5707;49.588;12.148;2022-08-21T16:49:54;25.20;62.10
11304;DHT22;5707;49.588;12.148;2022-08-21T16:52:35;25.40;59.70
11304;DHT22;5707;49.588;12.148;2022-08-21T16:55:15;25.60;59.50
11304;DHT22;5707;49.588;12.148;2022-08-21T16:57:57;25.80;62.50
11304;DHT22;5707;49.588;12.148;2022-08-21T17:00:38;26.00;62.30